createdAt,value
2018-06-12T00:00:41.298Z,21.30
2018-06-12T00:03:10.303Z,21.28
2018-06-12T00:05:38.884Z,21.26
2018-06-12T00:08:07.719Z,21.25
2018-06-12T00:10:36.701Z,21.28
2018-06-12T00:13:05.299Z,21.26
2018-06-12T00:15:33.795Z,21.26
2018-06-12T00:18:06.842Z,21.22
2018-06-12T00:20:36.062Z,21.22
2018-06-12T00:23:05.032Z,21.23
2018-06-12T00:25:33.632Z,21.22
2018-06-12T00:28:04.386Z,21.23
2018-06-12T00:30:33.233Z,21.24
2018-06-12T00:33:01.734Z,21.22
2018-06-12T00:35:30.236Z,21.24
2018-06-12T00:38:01.229Z,21.23
2018-06-12T00:40:29.874Z,21.22
2018-06-12T00:43:00.246Z,21.23
2018-06-12T00:45:29.098Z,21.21
2018-06-12T00:47:58.540Z,21.18
2018-06-12T00:50:27.075Z,21.19
2018-06-12T00:53:00.096Z,21.14
2018-06-12T00:55:28.648Z,21.16
2018-06-12T00:57:57.610Z,21.17
2018-06-12T01:00:26.394Z,21.15
2018-06-12T01:02:55.004Z,21.15
2018-06-12T01:05:23.561Z,21.15
2018-06-12T01:07:52.595Z,21.13
2018-06-12T01:10:22.413Z,21.14
2018-06-12T01:12:57.434Z,21.09
2018-06-12T01:15:25.954Z,21.09
2018-06-12T01:17:54.975Z,21.12
2018-06-12T01:20:23.499Z,21.11
2018-06-12T01:22:53.091Z,21.04
2018-06-12T01:25:26.811Z,20.97
2018-06-12T01:27:55.316Z,20.98
2018-06-12T01:30:24.353Z,20.94
2018-06-12T01:32:52.927Z,20.96
2018-06-12T01:35:21.922Z,20.96
2018-06-12T01:37:50.552Z,20.94
2018-06-12T01:40:19.407Z,20.92
2018-06-12T01:42:48.080Z,20.89
2018-06-12T01:45:16.654Z,20.90
2018-06-12T01:47:45.214Z,20.86
2018-06-12T01:50:15.867Z,20.85
2018-06-12T01:52:44.770Z,20.88
2018-06-12T01:55:19.829Z,20.90
2018-06-12T01:57:48.488Z,20.92
2018-06-12T02:00:17.016Z,20.88
2018-06-12T02:02:45.537Z,20.90
2018-06-12T02:05:14.343Z,20.84
2018-06-12T02:07:42.971Z,20.89
2018-06-12T02:10:11.533Z,20.85
2018-06-12T02:12:40.280Z,20.87
2018-06-12T02:15:09.142Z,20.90
2018-06-12T02:17:37.663Z,20.88
2018-06-12T02:20:06.294Z,20.88
2018-06-12T02:22:37.343Z,20.87
2018-06-12T02:25:06.506Z,20.86
2018-06-12T02:27:36.149Z,20.86
2018-06-12T02:30:05.709Z,20.84
2018-06-12T02:32:34.291Z,20.84
2018-06-12T02:35:04.140Z,20.82
2018-06-12T02:37:36.602Z,20.81
2018-06-12T02:40:05.990Z,20.76
2018-06-12T02:42:34.517Z,20.77
2018-06-12T02:45:03.892Z,20.76
2018-06-12T02:47:32.438Z,20.79
2018-06-12T02:50:01.617Z,20.78
2018-06-12T02:52:35.459Z,20.78
2018-06-12T02:55:04.658Z,20.80
2018-06-12T02:57:33.193Z,20.83
2018-06-12T03:00:03.287Z,20.86
2018-06-12T03:02:31.800Z,20.87
2018-06-12T03:05:05.150Z,20.84
2018-06-12T03:07:33.688Z,20.78
2018-06-12T03:10:03.379Z,20.74
2018-06-12T03:15:11.544Z,20.62
2018-06-12T03:17:43.298Z,20.52
2018-06-12T03:20:11.835Z,20.53
2018-06-12T03:22:40.633Z,20.54
2018-06-12T03:25:09.139Z,20.53
2018-06-12T03:27:38.142Z,20.49
2018-06-12T03:30:06.636Z,20.52
2018-06-12T03:32:35.126Z,20.50
2018-06-12T03:35:03.978Z,20.51
2018-06-12T03:37:32.490Z,20.46
2018-06-12T03:40:06.388Z,20.47
2018-06-12T03:42:34.962Z,20.51
2018-06-12T03:45:03.882Z,20.51
2018-06-12T03:47:32.514Z,20.45
2018-06-12T03:50:01.106Z,20.47
2018-06-12T03:52:33.523Z,20.53
2018-06-12T03:55:02.045Z,20.56
2018-06-12T03:57:30.758Z,20.58
2018-06-12T04:00:00.683Z,20.53
2018-06-12T04:02:29.178Z,20.55
2018-06-12T04:04:57.662Z,20.55
2018-06-12T04:07:26.504Z,20.55
2018-06-12T04:09:59.311Z,20.59
2018-06-12T04:12:27.838Z,20.61
2018-06-12T04:14:57.752Z,20.63
2018-06-12T04:17:26.271Z,20.62
2018-06-12T04:19:54.838Z,20.60
2018-06-12T04:22:23.486Z,20.61
2018-06-12T04:24:52.666Z,20.62
2018-06-12T04:27:21.178Z,20.63
2018-06-12T04:29:50.053Z,20.70
2018-06-12T04:32:18.999Z,20.69
2018-06-12T04:34:47.637Z,20.72
2018-06-12T04:39:51.347Z,20.75
2018-06-12T04:42:22.721Z,20.73
2018-06-12T04:44:51.475Z,20.79
2018-06-12T04:47:20.095Z,20.85
2018-06-12T04:49:49.015Z,20.80
2018-06-12T04:52:18.807Z,20.83
2018-06-12T04:54:47.417Z,20.90
2018-06-12T04:57:16.888Z,20.97
2018-06-12T04:59:46.046Z,21.04
2018-06-12T05:02:14.589Z,21.12
2018-06-12T05:04:45.131Z,21.21
2018-06-12T05:07:13.911Z,21.14
2018-06-12T05:09:42.446Z,21.13
2018-06-12T05:12:11.947Z,21.19
2018-06-12T05:14:43.711Z,21.24
2018-06-12T05:17:12.411Z,21.24
2018-06-12T05:19:40.991Z,21.29
2018-06-12T05:22:09.502Z,21.36
2018-06-12T05:24:44.155Z,21.40
2018-06-12T05:27:12.839Z,21.45
2018-06-12T05:29:41.664Z,21.44
2018-06-12T05:32:16.134Z,21.40
2018-06-12T05:34:44.945Z,21.42
2018-06-12T05:37:13.549Z,21.41
2018-06-12T05:39:42.388Z,21.41
2018-06-12T05:42:11.180Z,21.40
2018-06-12T05:44:39.814Z,21.41
2018-06-12T05:47:08.314Z,21.45
2018-06-12T05:49:40.730Z,21.45
2018-06-12T05:52:09.233Z,21.48
2018-06-12T05:54:38.202Z,21.49
2018-06-12T05:57:06.891Z,21.55
2018-06-12T05:59:35.702Z,21.61
2018-06-12T06:02:05.329Z,21.65
2018-06-12T06:04:33.806Z,21.71
2018-06-12T06:07:02.594Z,21.70
2018-06-12T06:09:31.430Z,21.71
2018-06-12T06:12:00.214Z,21.65
2018-06-12T06:14:28.715Z,21.68
2018-06-12T06:16:57.531Z,21.74
2018-06-12T06:19:26.195Z,21.80
2018-06-12T06:21:54.715Z,21.77
2018-06-12T06:24:23.544Z,21.74
2018-06-12T06:26:52.126Z,21.74
2018-06-12T06:29:27.019Z,21.70
2018-06-12T06:31:57.660Z,21.71
2018-06-12T06:34:30.056Z,21.73
2018-06-12T06:37:04.900Z,21.79
2018-06-12T06:39:33.955Z,21.78
2018-06-12T06:42:03.503Z,21.79
2018-06-12T06:46:59.199Z,21.70
2018-06-12T06:49:28.861Z,21.64
2018-06-12T06:51:58.905Z,21.60
2018-06-12T06:54:27.715Z,21.57
2018-06-12T06:56:57.158Z,21.46
2018-06-12T06:59:25.767Z,21.43
2018-06-12T07:01:56.311Z,21.36
2018-06-12T07:04:25.109Z,21.32
2018-06-12T07:06:53.691Z,21.30
2018-06-12T07:09:22.573Z,21.32
2018-06-12T07:11:51.185Z,21.31
2018-06-12T07:14:19.746Z,21.22
2018-06-12T07:19:23.988Z,21.25
2018-06-12T07:21:58.888Z,21.33
2018-06-12T07:24:27.818Z,21.37
2018-06-12T07:26:56.528Z,21.42
2018-06-12T07:29:26.402Z,21.53
2018-06-12T07:31:55.878Z,21.61
2018-06-12T07:34:25.553Z,21.61
2018-06-12T07:36:55.415Z,21.55
2018-06-12T07:39:23.963Z,21.58
2018-06-12T07:41:55.350Z,21.48
2018-06-12T07:44:24.253Z,21.55
2018-06-12T07:46:52.789Z,21.59
2018-06-12T07:49:23.246Z,21.53
2018-06-12T07:51:54.250Z,21.52
2018-06-12T07:54:22.785Z,21.53
2018-06-12T07:56:59.402Z,21.47
2018-06-12T07:59:27.922Z,21.47
2018-06-12T08:04:36.359Z,21.47
2018-06-12T08:07:05.017Z,21.48
2018-06-12T08:12:07.649Z,21.60
2018-06-12T08:14:36.149Z,21.60
2018-06-12T08:17:05.283Z,21.59
2018-06-12T08:19:35.620Z,21.69
2018-06-12T08:22:05.740Z,21.80
2018-06-12T08:24:40.051Z,21.87
2018-06-12T08:27:09.064Z,22.06
2018-06-12T08:29:37.608Z,22.23
2018-06-12T08:32:10.896Z,22.45
2018-06-12T08:34:39.716Z,22.61
2018-06-12T08:37:08.330Z,22.75
2018-06-12T08:39:36.918Z,22.77
2018-06-12T08:42:05.843Z,22.69
2018-06-12T08:47:15.278Z,22.60
2018-06-12T08:49:52.439Z,22.48
2018-06-12T08:52:21.286Z,22.34
2018-06-12T08:54:49.949Z,22.36
2018-06-12T08:57:18.734Z,22.34
2018-06-12T08:59:47.559Z,22.28
2018-06-12T09:02:16.366Z,22.18
2018-06-12T09:04:44.894Z,22.09
2018-06-12T09:07:13.618Z,22.03
2018-06-12T09:09:42.471Z,21.86
2018-06-12T09:12:10.979Z,21.77
2018-06-12T09:14:39.783Z,21.59
2018-06-12T09:17:08.420Z,21.53
2018-06-12T09:19:37.010Z,21.33
2018-06-12T09:22:05.595Z,21.36
2018-06-12T09:24:34.222Z,21.48
2018-06-12T09:27:03.285Z,21.58
2018-06-12T09:29:31.831Z,21.69
2018-06-12T09:32:11.544Z,21.69
2018-06-12T09:34:40.149Z,21.67
2018-06-12T09:37:10.270Z,21.74
2018-06-12T09:39:38.790Z,21.70
2018-06-12T09:42:07.405Z,21.68
2018-06-12T09:44:37.193Z,21.59
2018-06-12T09:47:05.767Z,21.48
2018-06-12T09:49:34.425Z,21.39
2018-06-12T09:52:04.679Z,21.23
2018-06-12T09:54:33.243Z,21.08
2018-06-12T09:57:02.079Z,20.97
2018-06-12T09:59:30.927Z,20.87
2018-06-12T10:01:59.627Z,20.84
2018-06-12T10:04:28.411Z,20.86
2018-06-12T10:06:57.304Z,20.91
2018-06-12T10:09:26.001Z,21.03
2018-06-12T10:12:00.346Z,21.26
2018-06-12T10:14:29.155Z,21.48
2018-06-12T10:17:08.584Z,21.56
2018-06-12T10:19:37.183Z,21.67
2018-06-12T10:22:05.770Z,21.81
2018-06-12T10:24:34.296Z,21.94
2018-06-12T10:27:03.221Z,22.08
2018-06-12T10:29:31.703Z,22.26
2018-06-12T10:32:00.597Z,22.26
2018-06-12T10:34:29.352Z,22.14
2018-06-12T10:36:58.215Z,22.11
2018-06-12T10:39:26.735Z,22.03
2018-06-12T10:41:57.859Z,21.95
2018-06-12T10:44:26.392Z,21.91
2018-06-12T10:47:01.753Z,21.85
2018-06-12T10:49:30.648Z,21.75
2018-06-12T10:51:59.613Z,21.70
2018-06-12T10:54:28.499Z,21.65
2018-06-12T10:56:57.884Z,21.83
2018-06-12T10:59:27.858Z,22.08
2018-06-12T11:02:00.450Z,22.26
2018-06-12T11:04:29.358Z,22.45
2018-06-12T11:07:02.453Z,22.68
2018-06-12T11:09:31.460Z,22.81
2018-06-12T11:12:02.953Z,22.81
2018-06-12T11:14:31.549Z,22.83
2018-06-12T11:17:00.413Z,22.84
2018-06-12T11:19:30.394Z,22.82
2018-06-12T11:21:59.014Z,22.99
2018-06-12T11:24:27.674Z,23.15
2018-06-12T11:26:58.556Z,23.23
2018-06-12T11:29:27.149Z,23.32
2018-06-12T11:31:56.867Z,23.43
2018-06-12T11:34:27.274Z,23.62
2018-06-12T11:36:57.746Z,23.72
2018-06-12T11:39:27.702Z,24.09
2018-06-12T11:41:59.352Z,24.44
2018-06-12T11:44:29.267Z,24.73
2018-06-12T11:46:58.675Z,24.94
2018-06-12T11:49:39.657Z,25.15
2018-06-12T11:52:08.983Z,25.19
2018-06-12T11:54:38.518Z,25.03
2018-06-12T11:57:12.937Z,24.91
2018-06-12T11:59:42.712Z,24.73
2018-06-12T12:02:13.550Z,24.71
2018-06-12T12:04:42.154Z,24.52
2018-06-12T12:07:10.791Z,24.45
2018-06-12T12:09:39.465Z,24.40
2018-06-12T12:12:13.753Z,24.25
2018-06-12T12:14:42.582Z,24.10
2018-06-12T12:17:11.896Z,23.94
2018-06-12T12:19:41.826Z,23.68
2018-06-12T12:22:10.491Z,23.48
2018-06-12T12:24:39.654Z,23.45
2018-06-12T12:27:09.013Z,23.36
2018-06-12T12:29:37.582Z,23.33
2018-06-12T12:32:08.331Z,23.30
2018-06-12T12:34:36.937Z,23.21
2018-06-12T12:37:05.639Z,23.17
2018-06-12T12:39:35.687Z,23.14
2018-06-12T12:42:05.577Z,23.04
2018-06-12T12:44:37.372Z,22.98
2018-06-12T12:47:07.524Z,22.94
2018-06-12T12:49:36.082Z,22.87
2018-06-12T12:52:06.912Z,22.83
2018-06-12T12:54:35.903Z,22.89
2018-06-12T12:57:05.429Z,22.85
2018-06-12T12:59:36.276Z,22.89
2018-06-12T13:02:05.833Z,22.95
2018-06-12T13:04:34.569Z,22.95
2018-06-12T13:07:03.681Z,22.98
2018-06-12T13:09:33.146Z,22.97
2018-06-12T13:12:08.284Z,22.94
2018-06-12T13:14:37.476Z,22.89
2018-06-12T13:17:07.349Z,22.73
2018-06-12T13:19:36.339Z,22.60
2018-06-12T13:22:08.331Z,22.59
2018-06-12T13:24:37.665Z,22.54
2018-06-12T13:27:06.285Z,22.41
2018-06-12T13:29:35.369Z,22.42
2018-06-12T13:32:05.804Z,22.38
2018-06-12T13:34:34.660Z,22.37
2018-06-12T13:37:08.599Z,22.29
2018-06-12T13:39:37.337Z,22.25
2018-06-12T13:42:06.128Z,22.25
2018-06-12T13:44:34.971Z,22.23
2018-06-12T13:47:03.881Z,22.26
2018-06-12T13:49:32.466Z,22.21
2018-06-12T13:52:08.755Z,22.28
2018-06-12T13:54:41.214Z,22.30
2018-06-12T13:57:10.241Z,22.35
2018-06-12T13:59:40.419Z,22.31
2018-06-12T14:02:09.102Z,22.23
2018-06-12T14:04:39.733Z,22.08
2018-06-12T14:07:08.645Z,22.11
2018-06-12T14:09:41.368Z,22.10
2018-06-12T14:12:09.995Z,21.93
2018-06-12T14:14:45.090Z,21.88
2018-06-12T14:17:13.635Z,21.95
2018-06-12T14:19:42.135Z,21.93
2018-06-12T14:22:12.448Z,21.90
2018-06-12T14:24:41.127Z,21.81
2018-06-12T14:27:11.868Z,21.73
2018-06-12T14:29:40.652Z,21.67
2018-06-12T14:32:09.132Z,21.65
2018-06-12T14:34:44.472Z,21.59
2018-06-12T14:37:13.290Z,21.61
2018-06-12T14:39:41.796Z,21.61
2018-06-12T14:42:10.773Z,21.65
2018-06-12T14:44:39.635Z,21.69
2018-06-12T14:47:08.159Z,21.75
2018-06-12T14:49:47.447Z,21.87
2018-06-12T14:52:16.551Z,21.96
2018-06-12T14:54:45.131Z,22.01
2018-06-12T14:57:13.631Z,21.90
2018-06-12T14:59:43.199Z,22.01
2018-06-12T15:02:11.663Z,22.09
2018-06-12T15:04:43.280Z,22.14
2018-06-12T15:07:12.128Z,22.22
2018-06-12T15:09:40.753Z,22.20
2018-06-12T15:12:09.288Z,22.17
2018-06-12T15:14:38.137Z,22.15
2018-06-12T15:17:09.751Z,22.11
2018-06-12T15:19:38.307Z,22.07
2018-06-12T15:22:09.383Z,22.02
2018-06-12T15:24:37.923Z,21.95
2018-06-12T15:27:06.788Z,22.00
2018-06-12T15:32:05.447Z,21.93
2018-06-12T15:34:34.218Z,21.94
2018-06-12T15:37:06.619Z,22.09
2018-06-12T15:39:35.165Z,22.19
2018-06-12T15:42:06.227Z,22.24
2018-06-12T15:44:38.790Z,22.22
2018-06-12T15:47:07.332Z,22.19
2018-06-12T15:49:42.366Z,22.16
2018-06-12T15:52:11.202Z,21.94
2018-06-12T15:54:39.760Z,21.95
2018-06-12T15:57:08.662Z,21.86
2018-06-12T15:59:37.525Z,21.76
2018-06-12T16:02:06.062Z,21.77
2018-06-12T16:04:34.602Z,21.68
2018-06-12T16:07:04.834Z,21.58
2018-06-12T16:09:33.307Z,21.46
2018-06-12T16:12:02.968Z,21.33
2018-06-12T16:14:31.816Z,21.31
2018-06-12T16:17:00.402Z,21.27
2018-06-12T16:19:28.931Z,21.14
2018-06-12T16:21:57.700Z,21.12
2018-06-12T16:24:31.980Z,21.04
2018-06-12T16:27:00.526Z,21.04
2018-06-12T16:29:29.458Z,21.08
2018-06-12T16:31:58.663Z,21.08
2018-06-12T16:34:27.234Z,21.04
2018-06-12T16:39:30.867Z,20.96
2018-06-12T16:42:05.384Z,20.97
2018-06-12T16:44:35.208Z,20.96
2018-06-12T16:47:04.790Z,20.97
2018-06-12T16:49:33.580Z,20.96
2018-06-12T16:52:08.822Z,20.93
2018-06-12T16:54:37.320Z,20.93
2018-06-12T16:57:06.498Z,20.88
2018-06-12T16:59:35.464Z,20.88
2018-06-12T17:02:05.183Z,20.92
2018-06-12T17:04:38.613Z,20.97
2018-06-12T17:07:07.621Z,20.99
2018-06-12T17:09:36.106Z,21.04
2018-06-12T17:12:09.103Z,21.05
2018-06-12T17:14:41.223Z,21.05
2018-06-12T17:17:09.848Z,21.08
2018-06-12T17:19:39.156Z,21.03
2018-06-12T17:22:09.545Z,21.00
2018-06-12T17:24:38.570Z,20.98
2018-06-12T17:27:07.457Z,21.00
2018-06-12T17:29:36.581Z,21.03
2018-06-12T17:32:06.623Z,21.00
2018-06-12T17:34:39.326Z,20.99
2018-06-12T17:37:08.327Z,20.92
2018-06-12T17:39:37.009Z,20.91
2018-06-12T17:42:06.730Z,20.90
2018-06-12T17:44:40.114Z,20.93
2018-06-12T17:47:09.480Z,20.87
2018-06-12T17:49:38.440Z,20.86
2018-06-12T17:52:07.182Z,20.86
2018-06-12T17:54:38.458Z,20.85
2018-06-12T17:57:07.269Z,20.90
2018-06-12T17:59:36.625Z,20.93
2018-06-12T18:02:06.337Z,20.91
2018-06-12T18:04:36.165Z,20.83
2018-06-12T18:09:45.137Z,20.80
2018-06-12T18:12:20.667Z,20.76
2018-06-12T18:14:49.200Z,20.79
2018-06-12T18:17:18.651Z,20.69
2018-06-12T18:19:52.294Z,20.76
2018-06-12T18:22:22.309Z,20.80
2018-06-12T18:24:51.488Z,20.79
2018-06-12T18:27:20.455Z,20.70
2018-06-12T18:29:49.106Z,20.62
2018-06-12T18:32:18.250Z,20.65
2018-06-12T18:34:46.798Z,20.63
2018-06-12T18:37:15.653Z,20.64
2018-06-12T18:39:44.600Z,20.61
2018-06-12T18:42:13.173Z,20.61
2018-06-12T18:44:41.683Z,20.57
2018-06-12T18:47:10.687Z,20.63
2018-06-12T18:49:39.231Z,20.59
2018-06-12T18:52:09.033Z,20.58
2018-06-12T18:54:37.826Z,20.60
2018-06-12T18:57:06.483Z,20.58
2018-06-12T18:59:35.027Z,20.54
2018-06-12T19:02:05.759Z,20.51
2018-06-12T19:04:34.734Z,20.52
2018-06-12T19:07:05.133Z,20.48
2018-06-12T19:09:38.869Z,20.46
2018-06-12T19:12:07.789Z,20.41
2018-06-12T19:14:36.376Z,20.39
2018-06-12T19:17:06.286Z,20.38
2018-06-12T19:19:35.039Z,20.41
2018-06-12T19:22:09.075Z,20.39
2018-06-12T19:24:38.377Z,20.35
2018-06-12T19:27:07.520Z,20.29
2018-06-12T19:29:36.043Z,20.32
2018-06-12T19:32:10.527Z,20.36
2018-06-12T19:34:39.071Z,20.41
2018-06-12T19:37:07.606Z,20.42
2018-06-12T19:39:42.388Z,20.40
2018-06-12T19:42:11.026Z,20.39
2018-06-12T19:44:39.525Z,20.38
2018-06-12T19:47:09.603Z,20.35
2018-06-12T19:49:38.089Z,20.37
2018-06-12T19:52:06.646Z,20.34
2018-06-12T19:54:35.744Z,20.32
2018-06-12T19:57:07.843Z,20.32
2018-06-12T19:59:36.974Z,20.32
2018-06-12T20:02:07.033Z,20.30
2018-06-12T20:04:35.592Z,20.32
2018-06-12T20:07:04.255Z,20.31
2018-06-12T20:09:33.193Z,20.29
2018-06-12T20:12:04.580Z,20.26
2018-06-12T20:14:37.198Z,20.26
2018-06-12T20:17:06.507Z,20.24
2018-06-12T20:19:35.123Z,20.24
2018-06-12T20:22:04.823Z,20.21
2018-06-12T20:24:33.885Z,20.18
2018-06-12T20:27:02.632Z,20.20
2018-06-12T20:29:31.282Z,20.21
2018-06-12T20:32:01.767Z,20.21
2018-06-12T20:34:30.316Z,20.19
2018-06-12T20:36:58.868Z,20.15
2018-06-12T20:39:29.263Z,20.16
2018-06-12T20:41:59.575Z,20.15
2018-06-12T20:44:35.024Z,20.14
2018-06-12T20:47:03.716Z,20.13
2018-06-12T20:49:36.731Z,20.11
2018-06-12T20:52:06.891Z,20.11
2018-06-12T20:54:35.445Z,20.06
2018-06-12T20:57:05.188Z,20.05
2018-06-12T20:59:40.582Z,20.02
2018-06-12T21:02:10.001Z,20.00
2018-06-12T21:04:38.710Z,20.00
2018-06-12T21:07:07.672Z,20.01
2018-06-12T21:09:36.803Z,20.00
2018-06-12T21:12:05.598Z,20.01
2018-06-12T21:14:39.770Z,20.01
2018-06-12T21:17:08.281Z,19.99
2018-06-12T21:19:37.279Z,19.97
2018-06-12T21:22:17.654Z,20.00
2018-06-12T21:24:46.174Z,20.01
2018-06-12T21:27:24.576Z,20.05
2018-06-12T21:29:53.218Z,20.02
2018-06-12T21:32:22.359Z,19.98
2018-06-12T21:34:53.264Z,19.94
2018-06-12T21:37:21.856Z,19.97
2018-06-12T21:39:52.351Z,19.98
2018-06-12T21:42:22.262Z,19.92
2018-06-12T21:44:50.784Z,19.89
2018-06-12T21:47:19.630Z,19.91
2018-06-12T21:49:48.155Z,19.89
2018-06-12T21:52:16.849Z,19.89
2018-06-12T21:54:45.894Z,19.92
2018-06-12T21:57:14.454Z,19.92
2018-06-12T21:59:45.016Z,19.93
2018-06-12T22:02:13.901Z,19.90
2018-06-12T22:04:44.650Z,19.85
2018-06-12T22:07:13.180Z,19.85
2018-06-12T22:09:47.925Z,19.88
2018-06-12T22:12:16.435Z,19.87
2018-06-12T22:14:50.013Z,19.86
2018-06-12T22:17:21.274Z,19.80
2018-06-12T22:19:49.866Z,19.76
2018-06-12T22:22:18.656Z,19.75
2018-06-12T22:24:49.271Z,19.77
2018-06-12T22:27:17.897Z,19.74
2018-06-12T22:29:50.233Z,19.67
2018-06-12T22:32:19.154Z,19.70
2018-06-12T22:34:47.693Z,19.67
2018-06-12T22:37:17.169Z,19.66
2018-06-12T22:39:45.959Z,19.63
2018-06-12T22:42:14.855Z,19.59
2018-06-12T22:44:43.555Z,19.62
2018-06-12T22:47:12.464Z,19.62
2018-06-12T22:49:41.204Z,19.58
2018-06-12T22:52:09.827Z,19.59
2018-06-12T22:54:38.767Z,19.58
2018-06-12T22:57:07.504Z,19.60
2018-06-12T22:59:36.110Z,19.59
2018-06-12T23:02:06.021Z,19.56
2018-06-12T23:04:40.269Z,19.59
2018-06-12T23:07:08.891Z,19.55
2018-06-12T23:09:40.184Z,19.55
2018-06-12T23:12:08.743Z,19.56
2018-06-12T23:14:37.271Z,19.57
2018-06-12T23:17:09.915Z,19.52
2018-06-12T23:19:49.381Z,19.44
2018-06-12T23:22:18.280Z,19.40
2018-06-12T23:24:57.506Z,19.42
2018-06-12T23:27:26.298Z,19.47
2018-06-12T23:29:54.814Z,19.44
2018-06-12T23:32:23.322Z,19.41
2018-06-12T23:34:52.037Z,19.44
2018-06-12T23:37:20.695Z,19.43
2018-06-12T23:42:29.063Z,19.32
2018-06-12T23:44:57.575Z,19.29
2018-06-12T23:47:26.089Z,19.33
2018-06-12T23:49:55.159Z,19.32
2018-06-12T23:52:23.911Z,19.25
2018-06-12T23:54:52.563Z,19.26
2018-06-12T23:57:21.574Z,19.20
2018-06-12T23:59:50.127Z,19.19
